createdAt,value
2018-09-11T00:01:54.941Z,15.07
2018-09-11T00:04:23.932Z,14.80
2018-09-11T00:06:53.137Z,15.23
2018-09-11T00:09:22.082Z,14.30
2018-09-11T00:11:51.013Z,15.10
2018-09-11T00:14:20.051Z,16.60
2018-09-11T00:16:49.040Z,15.47
2018-09-11T00:19:18.069Z,15.80
2018-09-11T00:21:47.019Z,14.27
2018-09-11T00:24:15.938Z,13.43
2018-09-11T00:26:44.973Z,14.17
2018-09-11T00:29:13.997Z,14.63
2018-09-11T00:31:43.008Z,16.10
2018-09-11T00:34:11.963Z,13.57
2018-09-11T00:36:40.992Z,14.40
2018-09-11T00:39:10.034Z,14.90
2018-09-11T00:41:40.282Z,13.80
2018-09-11T00:44:09.234Z,13.63
2018-09-11T00:46:38.212Z,14.37
2018-09-11T00:49:07.553Z,13.40
2018-09-11T00:51:36.589Z,13.67
2018-09-11T00:54:05.526Z,13.23
2018-09-11T00:56:34.615Z,13.10
2018-09-11T00:59:03.576Z,13.03
2018-09-11T01:01:32.680Z,12.67
2018-09-11T01:04:01.618Z,11.40
2018-09-11T01:06:30.661Z,11.23
2018-09-11T01:08:59.641Z,10.77
2018-09-11T01:11:28.581Z,11.30
2018-09-11T01:13:57.526Z,11.07
2018-09-11T01:16:26.595Z,9.73
2018-09-11T01:18:55.510Z,10.47
2018-09-11T01:21:24.465Z,9.60
2018-09-11T01:23:53.625Z,9.17
2018-09-11T01:26:22.611Z,9.50
2018-09-11T01:28:51.618Z,10.27
2018-09-11T01:31:20.558Z,9.67
2018-09-11T01:33:49.508Z,8.77
2018-09-11T01:36:18.473Z,10.53
2018-09-11T01:38:47.426Z,8.37
2018-09-11T01:41:16.361Z,9.00
2018-09-11T01:43:45.303Z,9.57
2018-09-11T01:46:14.343Z,9.00
2018-09-11T01:48:43.310Z,8.40
2018-09-11T01:51:12.333Z,8.63
2018-09-11T01:53:41.358Z,8.60
2018-09-11T01:56:10.332Z,8.57
2018-09-11T01:58:39.360Z,7.67
2018-09-11T02:01:08.343Z,8.80
2018-09-11T02:03:37.301Z,6.90
2018-09-11T02:06:06.264Z,7.40
2018-09-11T02:08:35.181Z,7.83
2018-09-11T02:11:04.186Z,7.40
2018-09-11T02:13:33.125Z,6.90
2018-09-11T02:16:02.055Z,7.00
2018-09-11T02:18:31.022Z,6.60
2018-09-11T02:21:00.050Z,6.57
2018-09-11T02:23:29.026Z,7.30
2018-09-11T02:25:58.060Z,6.33
2018-09-11T02:28:26.997Z,6.70
2018-09-11T02:30:56.209Z,6.60
2018-09-11T02:33:25.160Z,6.40
2018-09-11T02:35:54.149Z,6.53
2018-09-11T02:38:23.063Z,6.90
2018-09-11T02:40:51.994Z,7.10
2018-09-11T02:43:20.931Z,5.87
2018-09-11T02:45:50.189Z,6.63
2018-09-11T02:48:19.218Z,5.70
2018-09-11T02:50:48.153Z,6.07
2018-09-11T02:53:17.127Z,5.97
2018-09-11T02:55:46.094Z,6.10
2018-09-11T02:58:15.026Z,6.30
2018-09-11T03:00:43.980Z,6.83
2018-09-11T03:03:12.991Z,6.77
2018-09-11T03:05:41.936Z,6.17
2018-09-11T03:08:10.974Z,6.30
2018-09-11T03:10:39.914Z,5.30
2018-09-11T03:13:09.154Z,5.13
2018-09-11T03:15:38.078Z,5.37
2018-09-11T03:18:07.731Z,5.60
2018-09-11T03:20:36.642Z,5.80
2018-09-11T03:23:05.603Z,5.50
2018-09-11T03:25:34.688Z,4.90
2018-09-11T03:28:03.791Z,4.63
2018-09-11T03:30:33.821Z,4.90
2018-09-11T03:33:02.773Z,5.10
2018-09-11T03:35:31.766Z,4.87
2018-09-11T03:38:00.794Z,5.43
2018-09-11T03:40:29.758Z,5.80
2018-09-11T03:42:58.789Z,4.33
2018-09-11T03:45:27.730Z,4.83
2018-09-11T03:47:56.774Z,5.47
2018-09-11T03:50:25.729Z,5.33
2018-09-11T03:52:54.742Z,4.73
2018-09-11T03:55:23.785Z,4.73
2018-09-11T03:57:53.976Z,4.90
2018-09-11T04:00:23.047Z,5.20
2018-09-11T04:02:52.076Z,5.20
2018-09-11T04:05:21.077Z,4.57
2018-09-11T04:07:50.026Z,5.00
2018-09-11T04:10:19.073Z,4.80
2018-09-11T04:12:48.314Z,5.00
2018-09-11T04:15:17.389Z,5.60
2018-09-11T04:17:46.413Z,5.23
2018-09-11T04:20:15.433Z,5.10
2018-09-11T04:22:44.378Z,5.10
2018-09-11T04:25:13.411Z,5.53
2018-09-11T04:27:42.361Z,5.70
2018-09-11T04:30:11.305Z,5.20
2018-09-11T04:32:40.240Z,4.90
2018-09-11T04:35:09.200Z,5.03
2018-09-11T04:37:38.166Z,5.10
2018-09-11T04:40:07.098Z,5.57
2018-09-11T04:42:36.033Z,5.40
2018-09-11T04:45:05.386Z,6.03
2018-09-11T04:47:34.330Z,5.00
2018-09-11T04:50:03.339Z,5.30
2018-09-11T04:52:32.341Z,6.10
2018-09-11T04:55:01.343Z,5.17
2018-09-11T04:57:30.301Z,5.57
2018-09-11T04:59:59.390Z,5.47
2018-09-11T05:02:28.424Z,5.90
2018-09-11T05:04:57.355Z,6.10
2018-09-11T05:07:26.312Z,5.90
2018-09-11T05:09:55.297Z,5.70
2018-09-11T05:12:24.266Z,6.00
2018-09-11T05:14:53.196Z,5.60
2018-09-11T05:17:22.202Z,5.70
2018-09-11T05:19:51.342Z,5.27
2018-09-11T05:22:20.347Z,5.80
2018-09-11T05:24:49.358Z,5.40
2018-09-11T05:27:18.385Z,5.83
2018-09-11T05:29:47.394Z,5.97
2018-09-11T05:32:16.431Z,5.40
2018-09-11T05:34:45.398Z,5.20
2018-09-11T05:37:14.470Z,5.77
2018-09-11T05:39:43.542Z,5.50
2018-09-11T05:42:12.478Z,5.00
2018-09-11T05:44:41.425Z,5.27
2018-09-11T05:47:10.371Z,5.10
2018-09-11T05:49:39.319Z,5.20
2018-09-11T05:52:08.249Z,5.27
2018-09-11T05:54:37.237Z,4.70
2018-09-11T05:57:06.359Z,5.43
2018-09-11T05:59:35.320Z,4.57
2018-09-11T06:02:04.250Z,5.17
2018-09-11T06:04:33.241Z,5.00
2018-09-11T06:07:02.182Z,4.50
2018-09-11T06:09:31.121Z,4.33
2018-09-11T06:12:00.246Z,5.30
2018-09-11T06:14:29.159Z,3.90
2018-09-11T06:16:58.081Z,4.17
2018-09-11T06:19:27.054Z,4.90
2018-09-11T06:21:55.974Z,4.80
2018-09-11T06:24:24.984Z,5.10
2018-09-11T06:26:53.905Z,4.10
2018-09-11T06:29:23.038Z,4.17
2018-09-11T06:31:51.956Z,4.77
2018-09-11T06:34:20.903Z,4.57
2018-09-11T06:36:49.853Z,4.50
2018-09-11T06:39:18.782Z,3.70
2018-09-11T06:41:47.697Z,3.87
2018-09-11T06:44:16.641Z,4.50
2018-09-11T06:46:47.409Z,4.07
2018-09-11T06:49:16.474Z,3.93
2018-09-11T06:51:45.425Z,3.43
2018-09-11T06:54:14.391Z,4.40
2018-09-11T06:56:43.318Z,3.67
2018-09-11T06:59:12.276Z,3.83
2018-09-11T07:01:41.220Z,4.00
2018-09-11T07:04:10.363Z,3.87
2018-09-11T07:06:39.277Z,3.70
2018-09-11T07:09:09.482Z,3.67
2018-09-11T07:11:38.530Z,4.07
2018-09-11T07:14:07.338Z,3.57
2018-09-11T07:16:36.318Z,3.47
2018-09-11T07:19:05.276Z,3.30
2018-09-11T07:21:34.241Z,3.70
2018-09-11T07:24:03.309Z,4.10
2018-09-11T07:26:32.482Z,3.37
2018-09-11T07:29:01.405Z,3.70
2018-09-11T07:31:30.327Z,3.33
2018-09-11T07:33:59.267Z,3.70
2018-09-11T07:36:28.303Z,3.30
2018-09-11T07:38:57.185Z,3.33
2018-09-11T07:41:26.095Z,3.50
2018-09-11T07:43:55.057Z,3.10
2018-09-11T07:46:23.990Z,3.03
2018-09-11T07:48:53.011Z,3.20
2018-09-11T07:51:21.955Z,3.50
2018-09-11T07:53:50.974Z,3.30
2018-09-11T07:56:19.961Z,4.20
2018-09-11T07:58:48.936Z,3.37
2018-09-11T08:01:17.887Z,2.60
2018-09-11T08:03:46.916Z,3.33
2018-09-11T08:06:15.867Z,2.90
2018-09-11T08:08:45.584Z,3.60
2018-09-11T08:11:15.059Z,3.10
2018-09-11T08:13:44.222Z,3.53
2018-09-11T08:16:13.198Z,3.47
2018-09-11T08:18:42.193Z,3.27
2018-09-11T08:21:11.237Z,4.17
2018-09-11T08:23:40.163Z,3.40
2018-09-11T08:26:09.106Z,4.00
2018-09-11T08:28:38.079Z,4.20
2018-09-11T08:31:07.009Z,3.63
2018-09-11T08:33:35.979Z,3.70
2018-09-11T08:36:04.916Z,3.40
2018-09-11T08:38:33.873Z,3.57
2018-09-11T08:41:02.894Z,3.53
2018-09-11T08:43:31.761Z,4.00
2018-09-11T08:46:00.737Z,3.50
2018-09-11T08:48:29.726Z,3.23
2018-09-11T08:50:58.687Z,3.30
2018-09-11T08:53:28.486Z,2.90
2018-09-11T08:55:57.426Z,4.07
2018-09-11T08:58:26.365Z,3.77
2018-09-11T09:00:55.351Z,2.90
2018-09-11T09:03:24.261Z,3.27
2018-09-11T09:05:53.204Z,3.20
2018-09-11T09:08:22.410Z,2.93
2018-09-11T09:10:51.438Z,3.00
2018-09-11T09:13:20.787Z,3.00
2018-09-11T09:15:49.721Z,3.80
2018-09-11T09:18:18.685Z,2.93
2018-09-11T09:20:47.732Z,2.83
2018-09-11T09:23:16.761Z,2.93
2018-09-11T09:25:45.719Z,3.10
2018-09-11T09:28:14.686Z,3.90
2018-09-11T09:30:43.679Z,3.50
2018-09-11T09:33:12.665Z,3.30
2018-09-11T09:35:41.606Z,2.87
2018-09-11T09:38:10.589Z,3.47
2018-09-11T09:40:39.532Z,2.63
2018-09-11T09:43:08.506Z,2.77
2018-09-11T09:45:37.541Z,2.90
2018-09-11T09:48:06.563Z,2.77
2018-09-11T09:50:35.563Z,2.50
2018-09-11T09:53:04.504Z,2.83
2018-09-11T09:55:33.548Z,2.80
2018-09-11T09:58:02.582Z,2.50
2018-09-11T10:00:36.825Z,3.10
2018-09-11T10:03:05.839Z,3.17
2018-09-11T10:05:34.829Z,2.80
2018-09-11T10:08:03.769Z,2.87
2018-09-11T10:10:32.765Z,3.00
2018-09-11T10:13:01.707Z,3.10
2018-09-11T10:15:30.786Z,3.13
2018-09-11T10:17:59.735Z,2.93
2018-09-11T10:20:28.657Z,3.20
2018-09-11T10:22:57.602Z,2.70
2018-09-11T10:25:26.541Z,3.20
2018-09-11T10:27:55.491Z,4.43
2018-09-11T10:30:24.440Z,3.50
2018-09-11T10:32:53.430Z,2.90
2018-09-11T10:35:22.378Z,3.27
2018-09-11T10:37:51.307Z,3.43
2018-09-11T10:40:20.262Z,3.20
2018-09-11T10:42:49.202Z,3.90
2018-09-11T10:45:19.202Z,3.43
2018-09-11T10:47:48.168Z,2.70
2018-09-11T10:50:17.109Z,3.50
2018-09-11T10:52:46.037Z,3.20
2018-09-11T10:55:15.041Z,3.27
2018-09-11T10:57:44.021Z,3.50
2018-09-11T11:00:12.976Z,3.17
2018-09-11T11:02:42.058Z,3.83
2018-09-11T11:05:10.975Z,3.50
2018-09-11T11:07:40.604Z,3.10
2018-09-11T11:10:09.528Z,3.40
2018-09-11T11:12:38.468Z,3.30
2018-09-11T11:15:07.455Z,3.30
2018-09-11T11:17:36.404Z,3.03
2018-09-11T11:20:05.442Z,3.20
2018-09-11T11:22:34.390Z,3.00
2018-09-11T11:25:03.316Z,3.20
2018-09-11T11:27:32.284Z,2.97
2018-09-11T11:30:01.248Z,3.43
2018-09-11T11:32:30.178Z,2.90
2018-09-11T11:34:59.130Z,3.50
2018-09-11T11:37:28.293Z,3.67
2018-09-11T11:39:57.050Z,3.33
2018-09-11T11:42:26.071Z,3.20
2018-09-11T11:44:54.974Z,3.17
2018-09-11T11:47:23.975Z,3.10
2018-09-11T11:49:53.271Z,3.10
2018-09-11T11:52:22.237Z,3.70
2018-09-11T11:54:51.572Z,3.80
2018-09-11T11:57:20.453Z,3.27
2018-09-11T11:59:49.434Z,2.83
2018-09-11T12:02:18.443Z,3.10
2018-09-11T12:04:47.397Z,3.10
2018-09-11T12:07:16.322Z,3.30
2018-09-11T12:09:45.276Z,3.10
2018-09-11T12:12:14.226Z,2.83
2018-09-11T12:14:43.190Z,3.60
2018-09-11T12:17:12.311Z,3.57
2018-09-11T12:19:41.253Z,2.83
2018-09-11T12:22:10.188Z,3.60
2018-09-11T12:24:39.131Z,3.60
2018-09-11T12:27:08.076Z,3.30
2018-09-11T12:29:37.019Z,3.33
2018-09-11T12:32:06.040Z,3.60
2018-09-11T12:34:34.989Z,3.20
2018-09-11T12:37:03.924Z,3.40
2018-09-11T12:39:32.862Z,2.63
2018-09-11T12:42:01.808Z,2.73
2018-09-11T12:44:30.737Z,3.47
2018-09-11T12:46:59.796Z,3.23
2018-09-11T12:49:29.084Z,3.30
2018-09-11T12:51:58.053Z,3.30
2018-09-11T12:54:27.011Z,3.30
2018-09-11T12:56:55.942Z,3.80
2018-09-11T12:59:24.889Z,3.40
2018-09-11T13:01:53.836Z,3.00
2018-09-11T13:04:22.823Z,2.93
2018-09-11T13:06:51.737Z,3.17
2018-09-11T13:09:20.730Z,3.20
2018-09-11T13:11:49.689Z,2.97
2018-09-11T13:14:18.632Z,3.00
2018-09-11T13:16:47.658Z,2.73
2018-09-11T13:19:17.612Z,3.13
2018-09-11T13:21:46.945Z,3.10
2018-09-11T13:24:15.909Z,2.97
2018-09-11T13:26:44.855Z,3.07
2018-09-11T13:29:13.810Z,2.67
2018-09-11T13:31:42.791Z,3.30
2018-09-11T13:34:11.739Z,3.07
2018-09-11T13:36:40.727Z,2.90
2018-09-11T13:39:10.259Z,2.90
2018-09-11T13:41:39.175Z,2.93
2018-09-11T13:44:08.160Z,2.50
2018-09-11T13:46:37.109Z,3.50
2018-09-11T13:49:06.067Z,3.70
2018-09-11T13:51:35.007Z,3.10
2018-09-11T13:54:03.969Z,3.23
2018-09-11T13:56:32.921Z,4.03
2018-09-11T13:59:01.877Z,3.30
2018-09-11T14:01:30.830Z,3.37
2018-09-11T14:03:59.797Z,3.27
2018-09-11T14:06:28.747Z,3.23
2018-09-11T14:08:57.688Z,4.00
2018-09-11T14:11:26.610Z,3.50
2018-09-11T14:13:55.556Z,3.50
2018-09-11T14:16:24.482Z,3.80
2018-09-11T14:18:53.459Z,4.10
2018-09-11T14:21:22.449Z,3.67
2018-09-11T14:23:51.466Z,4.00
2018-09-11T14:26:20.443Z,3.83
2018-09-11T14:28:49.515Z,3.70
2018-09-11T14:31:18.637Z,3.53
2018-09-11T14:33:47.582Z,3.73
2018-09-11T14:36:16.520Z,3.77
2018-09-11T14:38:45.485Z,3.83
2018-09-11T14:41:15.425Z,3.50
2018-09-11T14:43:44.423Z,3.60
2018-09-11T14:46:13.373Z,4.00
2018-09-11T14:48:42.439Z,3.20
2018-09-11T14:51:11.510Z,3.50
2018-09-11T14:53:40.510Z,3.80
2018-09-11T14:56:09.494Z,3.60
2018-09-11T14:58:38.531Z,3.20
2018-09-11T15:01:07.478Z,3.00
2018-09-11T15:03:36.431Z,3.60
2018-09-11T15:06:05.409Z,3.37
2018-09-11T15:08:34.361Z,2.67
2018-09-11T15:11:03.330Z,3.53
2018-09-11T15:13:32.270Z,4.00
2018-09-11T15:16:01.617Z,3.83
2018-09-11T15:18:30.589Z,3.80
2018-09-11T15:20:59.580Z,3.90
2018-09-11T15:23:28.532Z,3.83
2018-09-11T15:25:58.556Z,5.17
2018-09-11T15:28:27.485Z,3.40
2018-09-11T15:30:56.425Z,2.97
2018-09-11T15:33:25.397Z,3.70
2018-09-11T15:35:54.391Z,3.50
2018-09-11T15:38:23.257Z,3.13
2018-09-11T15:40:52.493Z,3.23
2018-09-11T15:43:22.122Z,3.00
2018-09-11T15:45:51.174Z,3.63
2018-09-11T15:48:21.246Z,3.60
2018-09-11T15:50:50.276Z,3.70
2018-09-11T15:53:19.626Z,3.93
2018-09-11T15:55:48.744Z,4.30
2018-09-11T15:58:18.743Z,3.60
2018-09-11T16:00:47.747Z,3.67
2018-09-11T16:03:16.739Z,3.17
2018-09-11T16:05:45.777Z,3.50
2018-09-11T16:08:14.907Z,4.10
2018-09-11T16:10:44.071Z,4.00
2018-09-11T16:13:13.017Z,3.77
2018-09-11T16:15:42.004Z,4.37
2018-09-11T16:18:11.098Z,3.53
2018-09-11T16:20:40.098Z,3.80
2018-09-11T16:23:09.241Z,3.20
2018-09-11T16:25:38.257Z,3.80
2018-09-11T16:28:07.206Z,3.10
2018-09-11T16:30:36.229Z,3.13
2018-09-11T16:33:05.248Z,3.57
2018-09-11T16:35:34.325Z,3.50
2018-09-11T16:38:03.605Z,4.00
2018-09-11T16:40:32.633Z,3.00
2018-09-11T16:43:01.794Z,3.57
2018-09-11T16:45:30.813Z,2.80
2018-09-11T16:48:00.043Z,3.70
2018-09-11T16:50:29.135Z,3.20
2018-09-11T16:52:58.066Z,3.17
2018-09-11T16:55:27.016Z,2.93
2018-09-11T16:57:56.047Z,2.80
2018-09-11T17:00:25.127Z,3.53
2018-09-11T17:02:54.152Z,3.53
2018-09-11T17:05:23.175Z,3.37
2018-09-11T17:07:52.165Z,2.93
2018-09-11T17:10:21.132Z,3.47
2018-09-11T17:12:50.142Z,3.30
2018-09-11T17:15:19.137Z,3.20
2018-09-11T17:17:48.086Z,3.70
2018-09-11T17:20:17.230Z,4.03
2018-09-11T17:22:46.115Z,4.03
2018-09-11T17:25:15.109Z,3.90
2018-09-11T17:27:44.125Z,3.13
2018-09-11T17:30:13.184Z,3.20
2018-09-11T17:32:42.186Z,3.30
2018-09-11T17:35:11.185Z,4.47
2018-09-11T17:37:40.178Z,3.37
2018-09-11T17:40:09.146Z,4.03
2018-09-11T17:42:38.124Z,4.50
2018-09-11T17:45:07.085Z,3.10
2018-09-11T17:47:36.038Z,3.90
2018-09-11T17:50:05.239Z,4.10
2018-09-11T17:52:34.237Z,3.97
2018-09-11T17:55:03.168Z,3.87
2018-09-11T17:57:32.158Z,3.50
2018-09-11T18:00:01.092Z,3.40
2018-09-11T18:02:30.130Z,3.87
2018-09-11T18:04:59.074Z,3.70
2018-09-11T18:07:28.055Z,3.70
2018-09-11T18:09:57.002Z,4.77
2018-09-11T18:12:25.941Z,4.53
2018-09-11T18:14:54.886Z,5.00
2018-09-11T18:17:23.850Z,4.57
2018-09-11T18:19:52.774Z,4.20
2018-09-11T18:22:21.759Z,4.40
2018-09-11T18:24:50.734Z,4.30
2018-09-11T18:27:19.746Z,4.07
2018-09-11T18:29:48.814Z,4.80
2018-09-11T18:32:18.598Z,4.57
2018-09-11T18:34:47.722Z,3.83
2018-09-11T18:37:16.886Z,4.90
2018-09-11T18:39:45.876Z,5.43
2018-09-11T18:42:15.085Z,4.80
2018-09-11T18:44:44.125Z,4.57
2018-09-11T18:47:13.263Z,4.83
2018-09-11T18:49:42.382Z,4.40
2018-09-11T18:52:11.339Z,4.53
2018-09-11T18:54:42.504Z,4.80
2018-09-11T18:57:11.474Z,4.80
2018-09-11T18:59:40.446Z,5.00
2018-09-11T19:02:09.390Z,4.40
2018-09-11T19:04:38.942Z,4.63
2018-09-11T19:07:07.910Z,3.87
2018-09-11T19:09:36.862Z,4.40
2018-09-11T19:12:06.259Z,4.00
2018-09-11T19:14:35.257Z,4.43
2018-09-11T19:17:04.204Z,3.70
2018-09-11T19:19:33.138Z,4.37
2018-09-11T19:22:02.076Z,4.13
2018-09-11T19:24:31.019Z,3.93
2018-09-11T19:27:00.023Z,4.13
2018-09-11T19:29:28.962Z,4.17
2018-09-11T19:31:57.929Z,4.30
2018-09-11T19:34:26.865Z,3.67
2018-09-11T19:36:55.809Z,3.80
2018-09-11T19:39:24.773Z,3.50
2018-09-11T19:41:53.725Z,3.97
2018-09-11T19:44:22.666Z,3.50
2018-09-11T19:46:51.633Z,3.70
2018-09-11T19:49:20.579Z,3.73
2018-09-11T19:51:49.520Z,3.70
2018-09-11T19:54:18.574Z,3.90
2018-09-11T19:56:47.577Z,4.03
2018-09-11T19:59:16.589Z,3.63
2018-09-11T20:01:45.593Z,4.50
2018-09-11T20:04:15.713Z,3.63
2018-09-11T20:06:44.771Z,3.60
2018-09-11T20:09:13.806Z,4.17
2018-09-11T20:11:42.818Z,3.90
2018-09-11T20:14:11.793Z,4.10
2018-09-11T20:16:41.183Z,4.07
2018-09-11T20:19:10.278Z,4.50
2018-09-11T20:21:39.316Z,4.30
2018-09-11T20:24:08.301Z,3.90
2018-09-11T20:26:37.502Z,4.13
2018-09-11T20:29:06.478Z,4.20
2018-09-11T20:31:35.545Z,5.03
2018-09-11T20:34:04.478Z,3.80
2018-09-11T20:36:33.421Z,4.00
2018-09-11T20:39:02.825Z,4.30
2018-09-11T20:41:31.930Z,4.57
2018-09-11T20:44:00.969Z,3.97
2018-09-11T20:46:30.218Z,4.20
2018-09-11T20:48:59.130Z,4.17
2018-09-11T20:51:28.113Z,3.83
2018-09-11T20:53:57.058Z,4.27
2018-09-11T20:56:26.105Z,4.20
2018-09-11T20:58:55.134Z,4.50
2018-09-11T21:01:24.111Z,3.77
2018-09-11T21:03:53.050Z,3.60
2018-09-11T21:06:22.110Z,4.50
2018-09-11T21:08:51.049Z,4.43
2018-09-11T21:11:20.012Z,3.87
2018-09-11T21:13:48.941Z,4.23
2018-09-11T21:16:17.920Z,3.90
2018-09-11T21:18:46.888Z,4.00
2018-09-11T21:21:15.829Z,4.23
2018-09-11T21:23:44.801Z,4.33
2018-09-11T21:26:13.750Z,3.83
2018-09-11T21:28:42.705Z,4.77
2018-09-11T21:31:11.670Z,4.67
2018-09-11T21:33:40.622Z,4.00
2018-09-11T21:36:09.581Z,4.50
2018-09-11T21:38:38.535Z,4.43
2018-09-11T21:41:07.518Z,4.10
2018-09-11T21:43:36.486Z,4.30
2018-09-11T21:46:05.453Z,4.33
2018-09-11T21:48:34.415Z,4.50
2018-09-11T21:51:03.353Z,4.60
2018-09-11T21:53:32.303Z,4.33
2018-09-11T21:56:01.334Z,4.63
2018-09-11T21:58:30.281Z,4.13
2018-09-11T22:01:06.479Z,4.83
2018-09-11T22:03:35.441Z,4.30
2018-09-11T22:06:04.362Z,4.70
2018-09-11T22:08:33.352Z,4.53
2018-09-11T22:11:02.293Z,5.07
2018-09-11T22:13:31.237Z,4.57
2018-09-11T22:16:00.180Z,5.40
2018-09-11T22:18:29.236Z,4.97
2018-09-11T22:20:58.173Z,4.80
2018-09-11T22:23:27.154Z,5.00
2018-09-11T22:25:56.105Z,4.53
2018-09-11T22:28:25.034Z,4.93
2018-09-11T22:30:53.989Z,4.87
2018-09-11T22:33:23.078Z,5.43
2018-09-11T22:35:52.055Z,4.70
2018-09-11T22:38:21.016Z,5.10
2018-09-11T22:40:50.001Z,5.20
2018-09-11T22:43:18.938Z,5.10
2018-09-11T22:45:47.888Z,4.93
2018-09-11T22:48:16.889Z,5.27
2018-09-11T22:50:45.830Z,5.03
2018-09-11T22:53:14.783Z,5.20
2018-09-11T22:55:43.713Z,5.60
2018-09-11T22:58:12.671Z,5.60
2018-09-11T23:00:41.741Z,5.17
2018-09-11T23:03:10.674Z,5.73
2018-09-11T23:05:39.610Z,5.50
2018-09-11T23:08:08.529Z,5.10
2018-09-11T23:10:37.514Z,5.40
2018-09-11T23:13:06.425Z,6.93
2018-09-11T23:15:35.622Z,6.30
2018-09-11T23:18:04.661Z,5.57
2018-09-11T23:20:33.609Z,5.23
2018-09-11T23:23:02.528Z,6.50
2018-09-11T23:25:31.493Z,6.77
2018-09-11T23:28:00.507Z,5.27
2018-09-11T23:30:29.434Z,5.40
2018-09-11T23:32:58.413Z,5.53
2018-09-11T23:35:27.473Z,5.97
2018-09-11T23:37:56.600Z,6.23
2018-09-11T23:40:25.553Z,5.70
2018-09-11T23:42:54.592Z,5.77
2018-09-11T23:45:23.737Z,5.23
2018-09-11T23:47:52.668Z,5.40
2018-09-11T23:50:21.621Z,5.73
2018-09-11T23:52:50.562Z,6.00
2018-09-11T23:55:19.502Z,5.43
2018-09-11T23:57:48.561Z,5.30
